Time,TemperatureF,DewpointF,PressureIn,WindDirection,WindDirectionDegrees,WindSpeedMPH,WindSpeedGustMPH,Humidity,HourlyPrecipIn,Conditions,Clouds,dailyrainin,SoftwareType,DateUTC
2013-01-31 00:00:00,55.3,55.3,29.43,SSW,201,4.0,10.0,100,0.00,,,0.00,WeatherCatV1.12B45,2013-01-31 05:00:00,
2013-01-31 00:05:00,55.2,55.2,29.42,SSE,163,5.0,6.0,100,0.00,,,0.00,WeatherCatV1.12B45,2013-01-31 05:05:00,
2013-01-31 00:10:00,55.2,55.2,29.42,South,190,7.0,11.0,100,0.00,,,0.00,WeatherCatV1.12B45,2013-01-31 05:10:00,
2013-01-31 00:15:00,55.5,55.5,29.41,SSW,201,5.0,16.0,100,0.00,,,0.00,WeatherCatV1.12B45,2013-01-31 05:15:00,
2013-01-31 00:20:00,55.5,55.5,29.41,SSW,199,12.0,12.0,100,0.00,,,0.00,WeatherCatV1.12B45,2013-01-31 05:20:00,
2013-01-31 00:25:00,55.6,55.6,29.40,SSW,202,4.0,11.0,100,0.00,,,0.00,WeatherCatV1.12B45,2013-01-31 05:25:00,
2013-01-31 00:30:00,55.8,55.8,29.39,SSW,194,3.0,11.0,100,0.00,,,0.00,WeatherCatV1.12B45,2013-01-31 05:30:00,
2013-01-31 00:35:00,55.8,55.8,29.38,SSW,212,8.0,18.0,100,0.00,,,0.00,WeatherCatV1.12B45,2013-01-31 05:35:00,
2013-01-31 00:40:00,56.1,56.1,29.38,SSW,205,12.0,21.0,100,0.00,,,0.00,WeatherCatV1.12B45,2013-01-31 05:40:00,
2013-01-31 00:45:00,56.2,56.2,29.38,SSW,198,2.0,10.0,100,0.00,,,0.00,WeatherCatV1.12B45,2013-01-31 05:45:00,
2013-01-31 00:50:00,56.4,56.4,29.37,South,186,5.0,19.0,100,0.00,,,0.00,WeatherCatV1.12B45,2013-01-31 05:50:00,
2013-01-31 00:55:00,56.4,56.4,29.36,SSW,198,8.0,18.0,100,0.00,,,0.00,WeatherCatV1.12B45,2013-01-31 05:55:00,
2013-01-31 01:00:00,56.4,56.4,29.36,SSW,206,9.0,9.0,100,0.00,,,0.00,WeatherCatV1.12B45,2013-01-31 06:00:00,
2013-01-31 01:05:00,56.5,56.5,29.35,South,183,7.0,14.0,100,0.00,,,0.00,WeatherCatV1.12B45,2013-01-31 06:05:00,
2013-01-31 01:10:00,56.7,56.7,29.35,South,172,4.0,12.0,100,0.00,,,0.00,WeatherCatV1.12B45,2013-01-31 06:10:00,
2013-01-31 01:15:00,56.7,56.7,29.34,SSW,201,13.0,18.0,100,0.00,,,0.00,WeatherCatV1.12B45,2013-01-31 06:15:00,
2013-01-31 01:20:00,56.8,56.8,29.33,SSW,198,11.0,14.0,100,0.00,,,0.00,WeatherCatV1.12B45,2013-01-31 06:20:00,
2013-01-31 01:25:00,56.8,56.8,29.33,SSW,205,9.0,14.0,100,0.00,,,0.00,WeatherCatV1.12B45,2013-01-31 06:25:00,
2013-01-31 01:30:00,56.8,56.8,29.33,SSW,193,10.0,15.0,100,0.00,,,0.00,WeatherCatV1.12B45,2013-01-31 06:30:00,
2013-01-31 01:35:00,57.0,57.0,29.33,SSW,205,7.0,11.0,100,0.00,,,0.00,WeatherCatV1.12B45,2013-01-31 06:35:00,
2013-01-31 01:40:00,57.0,57.0,29.32,SSW,199,16.0,19.0,100,0.00,,,0.00,WeatherCatV1.12B45,2013-01-31 06:40:00,
2013-01-31 01:45:00,57.3,57.3,29.31,SSE,157,5.0,18.0,100,0.00,,,0.00,WeatherCatV1.12B45,2013-01-31 06:45:00,
2013-01-31 01:50:00,57.3,57.3,29.31,SSW,212,5.0,15.0,100,0.00,,,0.00,WeatherCatV1.12B45,2013-01-31 06:50:00,
2013-01-31 01:55:00,57.4,57.4,29.30,SSW,196,18.0,18.0,100,0.00,,,0.01,WeatherCatV1.12B45,2013-01-31 06:55:00,
2013-01-31 02:00:00,57.6,57.6,29.30,SSW,207,7.0,16.0,100,0.00,,,0.01,WeatherCatV1.12B45,2013-01-31 07:00:00,
2013-01-31 02:05:00,57.6,57.6,29.30,SSW,208,6.0,20.0,100,0.00,,,0.01,WeatherCatV1.12B45,2013-01-31 07:05:00,
2013-01-31 02:10:00,57.5,57.5,29.29,South,186,10.0,16.0,100,0.03,,,0.02,WeatherCatV1.12B45,2013-01-31 07:10:00,
2013-01-31 02:15:00,57.6,57.6,29.29,SSW,199,10.0,15.0,100,0.00,,,0.02,WeatherCatV1.12B45,2013-01-31 07:15:00,
2013-01-31 02:20:00,57.7,57.4,29.28,SW,218,8.0,19.0,99,0.00,,,0.02,WeatherCatV1.12B45,2013-01-31 07:20:00,
2013-01-31 02:25:00,57.7,57.7,29.28,SSW,195,17.0,21.0,100,0.00,,,0.02,WeatherCatV1.12B45,2013-01-31 07:25:00,
2013-01-31 02:30:00,57.9,57.9,29.27,SSW,207,12.0,21.0,100,0.00,,,0.02,WeatherCatV1.12B45,2013-01-31 07:30:00,
2013-01-31 02:35:00,57.9,57.6,29.26,SSW,196,8.0,20.0,99,0.00,,,0.02,WeatherCatV1.12B45,2013-01-31 07:35:00,
2013-01-31 02:40:00,57.7,57.4,29.25,SW,228,5.0,16.0,99,0.00,,,0.02,WeatherCatV1.12B45,2013-01-31 07:40:00,
2013-01-31 02:45:00,57.9,57.9,29.24,SSW,201,14.0,19.0,100,0.00,,,0.02,WeatherCatV1.12B45,2013-01-31 07:45:00,
2013-01-31 02:50:00,57.9,57.9,29.23,SSW,193,5.0,22.0,100,0.00,,,0.02,WeatherCatV1.12B45,2013-01-31 07:50:00,
2013-01-31 02:55:00,57.9,57.9,29.23,SSE,161,13.0,13.0,100,0.00,,,0.02,WeatherCatV1.12B45,2013-01-31 07:55:00,
2013-01-31 03:00:00,58.1,58.1,29.21,SSW,198,6.0,21.0,100,0.00,,,0.02,WeatherCatV1.12B45,2013-01-31 08:00:00,
2013-01-31 03:05:00,58.2,58.2,29.20,SSW,193,7.0,20.0,100,0.00,,,0.02,WeatherCatV1.12B45,2013-01-31 08:05:00,
2013-01-31 03:10:00,58.3,58.3,29.20,South,181,10.0,18.0,100,0.00,,,0.02,WeatherCatV1.12B45,2013-01-31 08:10:00,
2013-01-31 03:15:00,58.2,58.2,29.19,SSW,195,9.0,18.0,100,0.00,,,0.02,WeatherCatV1.12B45,2013-01-31 08:15:00,
2013-01-31 03:20:00,58.3,58.3,29.19,South,178,13.0,20.0,100,0.00,,,0.02,WeatherCatV1.12B45,2013-01-31 08:20:00,
2013-01-31 03:25:00,58.5,58.5,29.19,SW,222,8.0,17.0,100,0.00,,,0.02,WeatherCatV1.12B45,2013-01-31 08:25:00,
2013-01-31 03:30:00,58.7,58.4,29.18,SW,222,12.0,28.0,99,0.00,,,0.02,WeatherCatV1.12B45,2013-01-31 08:30:00,
2013-01-31 03:35:00,59.0,58.7,29.17,SSW,200,11.0,11.0,99,0.00,,,0.02,WeatherCatV1.12B45,2013-01-31 08:35:00,
2013-01-31 03:40:00,59.1,58.5,29.16,South,190,13.0,23.0,98,0.00,,,0.02,WeatherCatV1.12B45,2013-01-31 08:40:00,
2013-01-31 03:45:00,59.2,58.9,29.16,South,190,15.0,30.0,99,0.00,,,0.02,WeatherCatV1.12B45,2013-01-31 08:45:00,
2013-01-31 03:50:00,59.4,58.8,29.15,SW,221,11.0,12.0,98,0.00,,,0.02,WeatherCatV1.12B45,2013-01-31 08:50:00,
2013-01-31 03:55:00,59.3,58.7,29.15,SW,218,7.0,12.0,98,0.00,,,0.02,WeatherCatV1.12B45,2013-01-31 08:55:00,
2013-01-31 04:00:00,59.3,58.7,29.14,South,176,1.0,12.0,98,0.00,,,0.02,WeatherCatV1.12B45,2013-01-31 09:00:00,
2013-01-31 04:05:00,59.2,58.6,29.13,SSW,202,19.0,30.0,98,0.00,,,0.02,WeatherCatV1.12B45,2013-01-31 09:05:00,
2013-01-31 04:10:00,59.4,58.5,29.12,SSW,198,7.0,24.0,97,0.00,,,0.02,WeatherCatV1.12B45,2013-01-31 09:10:00,
2013-01-31 04:15:00,59.4,58.8,29.11,SSW,213,6.0,19.0,98,0.00,,,0.02,WeatherCatV1.12B45,2013-01-31 09:15:00,
2013-01-31 04:16:00,59.4,58.8,29.11,South,185,10.0,19.0,98,0.00,,,0.02,WeatherCatV1.12B45,2013-01-31 09:16:00,
2013-01-31 04:17:00,59.4,58.5,29.11,SW,215,20.0,20.0,97,0.00,,,0.02,WeatherCatV1.12B45,2013-01-31 09:17:00,
2013-01-31 04:22:00,59.6,58.7,29.11,SSW,208,6.0,19.0,97,0.00,,,0.02,WeatherCatV1.12B45,2013-01-31 09:22:00,
2013-01-31 04:27:00,59.6,58.7,29.10,South,187,8.0,12.0,97,0.00,,,0.02,WeatherCatV1.12B45,2013-01-31 09:27:00,
2013-01-31 04:32:00,59.7,58.8,29.10,SSW,209,13.0,17.0,97,0.00,,,0.02,WeatherCatV1.12B45,2013-01-31 09:32:00,
2013-01-31 04:37:00,59.9,59.0,29.10,SSW,205,9.0,14.0,97,0.00,,,0.02,WeatherCatV1.12B45,2013-01-31 09:37:00,
2013-01-31 04:42:00,59.7,58.6,29.10,SSW,204,4.0,23.0,96,0.00,,,0.02,WeatherCatV1.12B45,2013-01-31 09:42:00,
2013-01-31 04:47:00,59.7,58.8,29.08,SSW,209,6.0,16.0,97,0.00,,,0.02,WeatherCatV1.12B45,2013-01-31 09:47:00,
2013-01-31 04:52:00,59.5,58.9,29.08,SSW,204,19.0,19.0,98,0.00,,,0.02,WeatherCatV1.12B45,2013-01-31 09:52:00,
2013-01-31 04:57:00,59.7,58.8,29.08,SSW,202,8.0,25.0,97,0.00,,,0.03,WeatherCatV1.12B45,2013-01-31 09:57:00,
2013-01-31 05:02:00,59.7,59.1,29.08,SSW,199,10.0,26.0,98,0.00,,,0.03,WeatherCatV1.12B45,2013-01-31 10:02:00,
2013-01-31 05:07:00,59.7,59.1,29.07,South,189,8.0,27.0,98,0.00,,,0.03,WeatherCatV1.12B45,2013-01-31 10:07:00,
2013-01-31 05:12:00,59.6,59.0,29.06,SW,214,12.0,17.0,98,0.00,,,0.04,WeatherCatV1.12B45,2013-01-31 10:12:00,
2013-01-31 05:17:00,59.4,59.1,29.06,SSW,208,12.0,17.0,99,0.00,,,0.04,WeatherCatV1.12B45,2013-01-31 10:17:00,
2013-01-31 05:22:00,59.2,58.9,29.05,SSW,197,12.0,19.0,99,0.12,,,0.06,WeatherCatV1.12B45,2013-01-31 10:22:00,
2013-01-31 05:27:00,59.1,59.1,29.02,SSW,196,1.0,21.0,100,0.02,,,0.07,WeatherCatV1.12B45,2013-01-31 10:27:00,
2013-01-31 05:32:00,58.9,58.9,29.03,SSE,164,10.0,10.0,100,0.00,,,0.07,WeatherCatV1.12B45,2013-01-31 10:32:00,
2013-01-31 05:37:00,58.9,58.9,29.01,SSW,212,6.0,22.0,100,0.00,,,0.08,WeatherCatV1.12B45,2013-01-31 10:37:00,
2013-01-31 05:42:00,59.1,59.1,29.00,SSW,193,14.0,18.0,100,0.00,,,0.09,WeatherCatV1.12B45,2013-01-31 10:42:00,
2013-01-31 05:47:00,58.9,58.9,29.00,SW,235,13.0,17.0,100,0.00,,,0.10,WeatherCatV1.12B45,2013-01-31 10:47:00,
2013-01-31 05:52:00,59.1,59.1,28.99,SSE,155,8.0,17.0,100,0.17,,,0.12,WeatherCatV1.12B45,2013-01-31 10:52:00,
2013-01-31 05:57:00,58.9,58.9,28.99,West,265,0.0,22.0,100,0.00,,,0.13,WeatherCatV1.12B45,2013-01-31 10:57:00,
2013-01-31 06:02:00,58.9,58.9,28.99,SSW,198,8.0,20.0,100,0.00,,,0.14,WeatherCatV1.12B45,2013-01-31 11:02:00,
2013-01-31 06:07:00,59.0,59.0,28.98,SSE,164,2.0,12.0,100,0.00,,,0.14,WeatherCatV1.12B45,2013-01-31 11:07:00,
2013-01-31 06:12:00,58.8,58.8,28.98,SSW,203,7.0,19.0,100,0.02,,,0.15,WeatherCatV1.12B45,2013-01-31 11:12:00,
2013-01-31 06:17:00,58.8,58.8,28.99,South,188,18.0,18.0,100,0.00,,,0.15,WeatherCatV1.12B45,2013-01-31 11:17:00,
2013-01-31 06:22:00,58.9,58.9,28.99,SSW,200,4.0,15.0,100,0.00,,,0.15,WeatherCatV1.12B45,2013-01-31 11:22:00,
2013-01-31 06:27:00,59.1,59.1,28.99,SW,215,11.0,27.0,100,0.00,,,0.15,WeatherCatV1.12B45,2013-01-31 11:27:00,
2013-01-31 06:32:00,59.3,59.3,29.02,SW,214,6.0,20.0,100,0.00,,,0.16,WeatherCatV1.12B45,2013-01-31 11:32:00,
2013-01-31 06:37:00,59.2,59.2,29.01,South,190,10.0,18.0,100,0.00,,,0.16,WeatherCatV1.12B45,2013-01-31 11:37:00,
2013-01-31 06:42:00,59.2,59.2,29.02,SW,231,9.0,19.0,100,0.00,,,0.17,WeatherCatV1.12B45,2013-01-31 11:42:00,
2013-01-31 06:47:00,59.3,59.3,29.01,WSW,253,7.0,16.0,100,0.00,,,0.17,WeatherCatV1.12B45,2013-01-31 11:47:00,
2013-01-31 06:52:00,59.1,59.1,29.02,SW,220,2.0,7.0,100,0.04,,,0.18,WeatherCatV1.12B45,2013-01-31 11:52:00,
2013-01-31 06:57:00,59.0,59.0,29.02,SSW,193,15.0,16.0,100,0.00,,,0.18,WeatherCatV1.12B45,2013-01-31 11:57:00,
2013-01-31 07:02:00,58.8,58.8,29.02,SSW,206,4.0,19.0,100,0.00,,,0.18,WeatherCatV1.12B45,2013-01-31 12:02:00,
2013-01-31 07:07:00,58.6,58.6,29.00,South,179,6.0,11.0,100,0.00,,,0.18,WeatherCatV1.12B45,2013-01-31 12:07:00,
2013-01-31 07:12:00,58.3,58.3,29.00,SSW,209,4.0,10.0,100,0.00,,,0.19,WeatherCatV1.12B45,2013-01-31 12:12:00,
2013-01-31 07:17:00,58.0,58.0,29.00,SSW,200,10.0,10.0,100,0.00,,,0.19,WeatherCatV1.12B45,2013-01-31 12:17:00,
2013-01-31 07:22:00,57.7,57.7,28.99,SSW,203,3.0,12.0,100,0.00,,,0.19,WeatherCatV1.12B45,2013-01-31 12:22:00,
2013-01-31 07:27:00,57.6,57.6,28.97,SSW,210,2.0,8.0,100,0.00,,,0.19,WeatherCatV1.12B45,2013-01-31 12:27:00,
2013-01-31 07:32:00,57.3,57.3,28.97,South,184,4.0,6.0,100,0.00,,,0.19,WeatherCatV1.12B45,2013-01-31 12:32:00,
2013-01-31 07:37:00,57.1,56.8,28.97,South,189,4.0,7.0,99,0.00,,,0.19,WeatherCatV1.12B45,2013-01-31 12:37:00,
2013-01-31 07:42:00,56.8,56.8,28.97,South,191,4.0,8.0,100,0.00,,,0.19,WeatherCatV1.12B45,2013-01-31 12:42:00,
2013-01-31 07:47:00,56.5,56.2,28.97,SSW,192,3.0,9.0,99,0.00,,,0.19,WeatherCatV1.12B45,2013-01-31 12:47:00,
2013-01-31 07:52:00,56.4,56.1,28.97,SSW,211,5.0,14.0,99,0.00,,,0.19,WeatherCatV1.12B45,2013-01-31 12:52:00,
2013-01-31 07:57:00,56.2,55.9,28.96,South,187,12.0,12.0,99,0.00,,,0.19,WeatherCatV1.12B45,2013-01-31 12:57:00,
2013-01-31 08:02:00,56.1,55.8,28.96,SSW,200,10.0,12.0,99,0.00,,,0.19,WeatherCatV1.12B45,2013-01-31 13:02:00,
2013-01-31 08:07:00,56.1,55.8,28.95,South,183,1.0,10.0,99,0.00,,,0.19,WeatherCatV1.12B45,2013-01-31 13:07:00,
2013-01-31 08:12:00,56.0,55.7,28.95,SSW,192,8.0,15.0,99,0.00,,,0.19,WeatherCatV1.12B45,2013-01-31 13:12:00,
2013-01-31 08:17:00,55.9,55.6,28.94,SSW,205,8.0,13.0,99,0.00,,,0.19,WeatherCatV1.12B45,2013-01-31 13:17:00,
2013-01-31 08:22:00,55.9,55.6,28.95,SSW,212,6.0,8.0,99,0.00,,,0.19,WeatherCatV1.12B45,2013-01-31 13:22:00,
2013-01-31 08:27:00,56.1,55.5,28.95,SSW,210,9.0,13.0,98,0.00,,,0.19,WeatherCatV1.12B45,2013-01-31 13:27:00,
2013-01-31 08:32:00,56.2,55.1,28.95,SW,215,8.0,12.0,96,0.00,,,0.19,WeatherCatV1.12B45,2013-01-31 13:32:00,
2013-01-31 08:37:00,56.4,55.0,28.94,SW,214,6.0,18.0,95,0.00,,,0.19,WeatherCatV1.12B45,2013-01-31 13:37:00,
2013-01-31 08:42:00,56.5,54.8,28.94,SSW,206,8.0,15.0,94,0.00,,,0.19,WeatherCatV1.12B45,2013-01-31 13:42:00,
2013-01-31 08:47:00,56.5,54.8,28.95,SSW,201,6.0,13.0,94,0.00,,,0.19,WeatherCatV1.12B45,2013-01-31 13:47:00,
2013-01-31 08:52:00,56.7,54.7,28.95,South,187,6.0,11.0,93,0.00,,,0.19,WeatherCatV1.12B45,2013-01-31 13:52:00,
2013-01-31 08:57:00,56.8,54.2,28.94,SW,220,11.0,16.0,91,0.00,,,0.19,WeatherCatV1.12B45,2013-01-31 13:57:00,
2013-01-31 09:00:00,56.8,54.2,28.98,WNW,293,11.0,15.0,91,0.00,,,0.19,WeatherCatV1.12B45,2013-01-31 14:00:00,
2013-01-31 09:05:00,53.6,47.9,29.00,WNW,285,11.0,21.0,81,2.29,,,0.24,WeatherCatV1.12B45,2013-01-31 14:05:00,
2013-01-31 09:10:00,48.9,44.6,29.01,WSW,253,6.0,20.0,85,0.00,,,0.25,WeatherCatV1.12B45,2013-01-31 14:10:00,
2013-01-31 09:15:00,46.1,43.0,29.01,NW,313,7.0,13.0,89,0.00,,,0.25,WeatherCatV1.12B45,2013-01-31 14:15:00,
2013-01-31 09:20:00,45.0,42.5,29.03,West,262,6.0,16.0,91,0.00,,,0.26,WeatherCatV1.12B45,2013-01-31 14:20:00,
2013-01-31 09:25:00,44.3,42.1,29.04,SSW,206,2.0,9.0,92,0.00,,,0.26,WeatherCatV1.12B45,2013-01-31 14:25:00,
2013-01-31 09:30:00,43.8,41.6,29.04,WSW,257,4.0,7.0,92,0.00,,,0.26,WeatherCatV1.12B45,2013-01-31 14:30:00,
2013-01-31 09:35:00,43.3,41.1,29.04,West,281,6.0,22.0,92,0.00,,,0.26,WeatherCatV1.12B45,2013-01-31 14:35:00,
2013-01-31 09:40:00,43.2,41.0,29.06,SW,224,6.0,11.0,92,0.00,,,0.26,WeatherCatV1.12B45,2013-01-31 14:40:00,
2013-01-31 09:45:00,43.0,41.1,29.07,WNW,288,3.0,9.0,93,0.00,,,0.26,WeatherCatV1.12B45,2013-01-31 14:45:00,
2013-01-31 09:50:00,42.9,40.5,29.07,West,271,2.0,17.0,91,0.00,,,0.26,WeatherCatV1.12B45,2013-01-31 14:50:00,
2013-01-31 09:55:00,42.8,40.4,29.08,SW,227,7.0,11.0,91,0.00,,,0.26,WeatherCatV1.12B45,2013-01-31 14:55:00,
2013-01-31 10:00:00,42.6,39.6,29.08,NW,306,6.0,17.0,89,0.00,,,0.26,WeatherCatV1.12B45,2013-01-31 15:00:00,
2013-01-31 10:05:00,42.2,39.5,29.08,SW,219,4.0,11.0,90,0.01,,,0.27,WeatherCatV1.12B45,2013-01-31 15:05:00,
2013-01-31 10:12:00,41.6,39.5,29.08,WNW,293,3.0,5.0,92,0.00,,,0.27,WeatherCatV1.12B45,2013-01-31 15:12:00,
2013-01-31 10:17:00,41.6,39.7,29.08,WSW,248,3.0,5.0,93,0.00,,,0.27,WeatherCatV1.12B45,2013-01-31 15:17:00,
2013-01-31 10:22:00,41.8,40.2,29.08,WSW,255,1.0,9.0,94,0.00,,,0.27,WeatherCatV1.12B45,2013-01-31 15:22:00,
2013-01-31 10:27:00,42.3,41.0,29.08,SW,218,4.0,8.0,95,0.00,,,0.27,WeatherCatV1.12B45,2013-01-31 15:27:00,
2013-01-31 10:32:00,42.8,41.2,29.08,NW,307,6.0,8.0,94,0.00,,,0.27,WeatherCatV1.12B45,2013-01-31 15:32:00,
2013-01-31 10:37:00,42.9,40.5,29.10,SSW,208,4.0,11.0,91,0.00,,,0.27,WeatherCatV1.12B45,2013-01-31 15:37:00,
2013-01-31 10:42:00,43.3,40.0,29.10,West,268,5.0,18.0,88,0.00,,,0.27,WeatherCatV1.12B45,2013-01-31 15:42:00,
2013-01-31 10:43:00,43.3,39.1,29.10,WNW,282,6.0,18.0,85,0.00,,,0.27,WeatherCatV1.12B45,2013-01-31 15:43:00,
2013-01-31 10:47:00,43.5,38.4,29.10,SW,233,8.0,13.0,82,0.00,,,0.27,WeatherCatV1.12B45,2013-01-31 15:47:00,
2013-01-31 10:52:00,43.9,38.1,29.11,West,265,7.0,14.0,80,0.00,,,0.27,WeatherCatV1.12B45,2013-01-31 15:52:00,
2013-01-31 10:57:00,44.3,37.6,29.12,WSW,251,10.0,14.0,77,0.00,,,0.27,WeatherCatV1.12B45,2013-01-31 15:57:00,
2013-01-31 11:02:00,44.6,36.8,29.13,West,262,11.0,12.0,74,0.00,,,0.27,WeatherCatV1.12B45,2013-01-31 16:02:00,
2013-01-31 11:07:00,44.6,35.4,29.13,West,277,9.0,20.0,70,0.00,,,0.27,WeatherCatV1.12B45,2013-01-31 16:07:00,
2013-01-31 11:12:00,45.0,36.5,29.13,SSW,198,7.0,16.0,72,0.00,,,0.27,WeatherCatV1.12B45,2013-01-31 16:12:00,
2013-01-31 11:17:00,45.3,35.4,29.14,WNW,284,18.0,19.0,68,0.00,,,0.27,WeatherCatV1.12B45,2013-01-31 16:17:00,
2013-01-31 11:22:00,45.3,35.7,29.14,WSW,237,2.0,15.0,69,0.00,,,0.27,WeatherCatV1.12B45,2013-01-31 16:22:00,
2013-01-31 11:27:00,44.9,35.0,29.15,SSW,205,6.0,18.0,68,0.00,,,0.27,WeatherCatV1.12B45,2013-01-31 16:27:00,
2013-01-31 11:32:00,44.3,33.3,29.14,West,274,5.0,18.0,65,0.00,,,0.27,WeatherCatV1.12B45,2013-01-31 16:32:00,
2013-01-31 11:37:00,44.0,32.6,29.16,West,276,5.0,20.0,64,0.00,,,0.27,WeatherCatV1.12B45,2013-01-31 16:37:00,
2013-01-31 11:42:00,43.7,32.3,29.15,West,269,8.0,16.0,64,0.00,,,0.27,WeatherCatV1.12B45,2013-01-31 16:42:00,
2013-01-31 11:47:00,43.6,31.5,29.16,WNW,284,13.0,16.0,62,0.00,,,0.27,WeatherCatV1.12B45,2013-01-31 16:47:00,
2013-01-31 11:52:00,43.3,31.6,29.17,West,274,8.0,24.0,63,0.00,,,0.27,WeatherCatV1.12B45,2013-01-31 16:52:00,
2013-01-31 11:57:00,43.2,31.5,29.17,WSW,252,7.0,18.0,63,0.00,,,0.27,WeatherCatV1.12B45,2013-01-31 16:57:00,
2013-01-31 12:02:00,42.9,30.8,29.17,West,276,4.0,20.0,62,0.00,,,0.27,WeatherCatV1.12B45,2013-01-31 17:02:00,
2013-01-31 12:07:00,43.0,30.1,29.17,NW,310,11.0,21.0,60,0.00,,,0.27,WeatherCatV1.12B45,2013-01-31 17:07:00,
2013-01-31 12:12:00,43.2,31.1,29.17,West,269,4.0,10.0,62,0.00,,,0.27,WeatherCatV1.12B45,2013-01-31 17:12:00,
2013-01-31 12:17:00,43.2,30.7,29.17,SSW,205,7.0,12.0,61,0.00,,,0.27,WeatherCatV1.12B45,2013-01-31 17:17:00,
2013-01-31 12:22:00,43.3,30.4,29.18,WNW,291,14.0,15.0,60,0.00,,,0.27,WeatherCatV1.12B45,2013-01-31 17:22:00,
2013-01-31 12:27:00,43.6,30.2,29.18,SW,235,6.0,20.0,59,0.00,,,0.27,WeatherCatV1.12B45,2013-01-31 17:27:00,
2013-01-31 12:32:00,43.8,30.0,29.18,SW,229,4.0,12.0,58,0.00,,,0.27,WeatherCatV1.12B45,2013-01-31 17:32:00,
2013-01-31 12:37:00,43.5,29.3,29.18,West,268,11.0,20.0,57,0.00,,,0.27,WeatherCatV1.12B45,2013-01-31 17:37:00,
2013-01-31 12:40:00,43.3,29.5,29.18,West,281,7.0,12.0,58,0.00,,,0.27,WeatherCatV1.12B45,2013-01-31 17:40:00,
2013-01-31 12:45:00,43.2,29.9,29.19,SW,225,3.0,9.0,59,0.00,,,0.27,WeatherCatV1.12B45,2013-01-31 17:45:00,
2013-01-31 12:50:00,43.0,28.4,29.19,WNW,288,16.0,16.0,56,0.00,,,0.27,WeatherCatV1.12B45,2013-01-31 17:50:00,
2013-01-31 12:52:00,42.8,28.2,29.18,West,263,6.0,24.0,56,0.00,,,0.27,WeatherCatV1.12B45,2013-01-31 17:52:00,
2013-01-31 12:57:00,42.4,28.7,29.19,West,260,12.0,12.0,58,0.00,,,0.27,WeatherCatV1.12B45,2013-01-31 17:57:00,
2013-01-31 13:02:00,42.2,28.5,29.20,West,273,13.0,13.0,58,0.00,,,0.27,WeatherCatV1.12B45,2013-01-31 18:02:00,
2013-01-31 13:07:00,42.0,27.5,29.21,West,268,7.0,17.0,56,0.00,,,0.27,WeatherCatV1.12B45,2013-01-31 18:07:00,
2013-01-31 13:12:00,42.6,28.9,29.21,SSW,213,5.0,10.0,58,0.00,,,0.27,WeatherCatV1.12B45,2013-01-31 18:12:00,
2013-01-31 13:17:00,43.3,29.5,29.21,WNW,285,5.0,11.0,58,0.00,,,0.27,WeatherCatV1.12B45,2013-01-31 18:17:00,
2013-01-31 13:22:00,43.6,29.4,29.22,WNW,298,5.0,16.0,57,0.00,,,0.27,WeatherCatV1.12B45,2013-01-31 18:22:00,
2013-01-31 13:27:00,43.8,29.1,29.23,SSW,213,3.0,12.0,56,0.00,,,0.27,WeatherCatV1.12B45,2013-01-31 18:27:00,
2013-01-31 13:32:00,43.9,27.0,29.22,WNW,283,16.0,19.0,51,0.00,,,0.27,WeatherCatV1.12B45,2013-01-31 18:32:00,
2013-01-31 13:37:00,43.3,25.4,29.23,SSW,213,4.0,20.0,49,0.00,,,0.27,WeatherCatV1.12B45,2013-01-31 18:37:00,
2013-01-31 13:42:00,42.9,25.1,29.25,West,273,18.0,18.0,49,0.00,,,0.27,WeatherCatV1.12B45,2013-01-31 18:42:00,
2013-01-31 13:47:00,42.2,25.4,29.24,West,267,2.0,26.0,51,0.00,,,0.27,WeatherCatV1.12B45,2013-01-31 18:47:00,
2013-01-31 13:52:00,42.1,25.3,29.24,WNW,293,7.0,15.0,51,0.00,,,0.27,WeatherCatV1.12B45,2013-01-31 18:52:00,
2013-01-31 13:57:00,42.2,25.4,29.24,WNW,286,4.0,13.0,51,0.00,,,0.27,WeatherCatV1.12B45,2013-01-31 18:57:00,
2013-01-31 14:02:00,42.3,24.5,29.24,SSW,198,2.0,11.0,49,0.00,,,0.27,WeatherCatV1.12B45,2013-01-31 19:02:00,
2013-01-31 14:07:00,42.5,25.2,29.24,SW,222,7.0,12.0,50,0.00,,,0.27,WeatherCatV1.12B45,2013-01-31 19:07:00,
2013-01-31 14:12:00,42.5,24.7,29.25,WSW,249,12.0,14.0,49,0.00,,,0.27,WeatherCatV1.12B45,2013-01-31 19:12:00,
2013-01-31 14:17:00,42.3,24.0,29.26,WNW,289,7.0,21.0,48,0.00,,,0.27,WeatherCatV1.12B45,2013-01-31 19:17:00,
2013-01-31 14:22:00,42.2,23.4,29.25,WNW,284,8.0,21.0,47,0.00,,,0.27,WeatherCatV1.12B45,2013-01-31 19:22:00,
2013-01-31 14:27:00,42.0,23.8,29.26,WNW,293,3.0,10.0,48,0.00,,,0.27,WeatherCatV1.12B45,2013-01-31 19:27:00,
2013-01-31 14:32:00,41.8,22.6,29.27,WNW,286,6.0,16.0,46,0.00,,,0.27,WeatherCatV1.12B45,2013-01-31 19:32:00,
2013-01-31 14:37:00,41.3,23.1,29.27,West,260,6.0,11.0,48,0.00,,,0.27,WeatherCatV1.12B45,2013-01-31 19:37:00,
2013-01-31 14:42:00,41.2,23.5,29.27,NW,315,8.0,12.0,49,0.00,,,0.27,WeatherCatV1.12B45,2013-01-31 19:42:00,
2013-01-31 14:47:00,41.2,23.5,29.27,West,279,5.0,8.0,49,0.00,,,0.27,WeatherCatV1.12B45,2013-01-31 19:47:00,
2013-01-31 14:52:00,40.9,22.7,29.28,West,278,11.0,16.0,48,0.00,,,0.27,WeatherCatV1.12B45,2013-01-31 19:52:00,
2013-01-31 14:57:00,40.8,22.6,29.30,West,262,0.0,0.0,48,0.00,,,0.27,WeatherCatV1.12B45,2013-01-31 19:57:00,
2013-01-31 15:02:00,40.7,22.6,29.30,WNW,286,7.0,12.0,48,0.00,,,0.27,WeatherCatV1.12B45,2013-01-31 20:02:00,
2013-01-31 15:07:00,40.9,22.7,29.30,West,259,9.0,16.0,48,0.00,,,0.27,WeatherCatV1.12B45,2013-01-31 20:07:00,
2013-01-31 15:12:00,40.7,21.5,29.30,WNW,292,5.0,13.0,46,0.00,,,0.27,WeatherCatV1.12B45,2013-01-31 20:12:00,
2013-01-31 15:17:00,40.8,22.1,29.32,West,266,9.0,14.0,47,0.00,,,0.27,WeatherCatV1.12B45,2013-01-31 20:17:00,
2013-01-31 15:22:00,40.5,21.9,29.31,West,262,3.0,11.0,47,0.00,,,0.27,WeatherCatV1.12B45,2013-01-31 20:22:00,
2013-01-31 15:27:00,40.2,21.6,29.33,WSW,255,3.0,7.0,47,0.00,,,0.27,WeatherCatV1.12B45,2013-01-31 20:27:00,
2013-01-31 15:32:00,39.6,21.0,29.33,WNW,290,10.0,11.0,47,0.00,,,0.27,WeatherCatV1.12B45,2013-01-31 20:32:00,
2013-01-31 15:37:00,39.2,21.2,29.33,WNW,285,7.0,12.0,48,0.00,,,0.27,WeatherCatV1.12B45,2013-01-31 20:37:00,
2013-01-31 15:42:00,38.9,21.4,29.33,West,274,11.0,11.0,49,0.00,,,0.27,WeatherCatV1.12B45,2013-01-31 20:42:00,
2013-01-31 15:47:00,38.7,20.7,29.33,West,276,6.0,13.0,48,0.00,,,0.27,WeatherCatV1.12B45,2013-01-31 20:47:00,
2013-01-31 15:52:00,38.7,21.2,29.33,West,277,5.0,6.0,49,0.00,,,0.27,WeatherCatV1.12B45,2013-01-31 20:52:00,
2013-01-31 15:54:00,38.7,21.7,29.34,West,272,4.0,9.0,50,0.00,,,0.27,WeatherCatV1.12B45,2013-01-31 20:54:00,
2013-01-31 15:59:00,38.6,21.1,29.34,WNW,284,15.0,15.0,49,0.00,,,0.27,WeatherCatV1.12B45,2013-01-31 20:59:00,
2013-01-31 16:04:00,38.5,21.0,29.34,West,262,0.0,14.0,49,0.00,,,0.27,WeatherCatV1.12B45,2013-01-31 21:04:00,
2013-01-31 16:20:00,38.3,21.3,29.35,WNW,286,2.0,12.0,50,0.00,,,0.27,WeatherCatV1.12B45,2013-01-31 21:20:00,
2013-01-31 16:24:00,38.2,20.3,29.35,West,267,7.0,13.0,48,0.00,,,0.27,WeatherCatV1.12B45,2013-01-31 21:24:00,
2013-01-31 16:29:00,38.2,20.7,29.35,West,273,4.0,7.0,49,0.00,,,0.27,WeatherCatV1.12B45,2013-01-31 21:29:00,
2013-01-31 16:34:00,38.0,21.0,29.36,SW,227,6.0,8.0,50,0.00,,,0.27,WeatherCatV1.12B45,2013-01-31 21:34:00,
2013-01-31 16:39:00,37.9,20.9,29.36,WNW,293,2.0,9.0,50,0.00,,,0.27,WeatherCatV1.12B45,2013-01-31 21:39:00,
2013-01-31 16:44:00,37.7,20.8,29.37,West,272,3.0,9.0,50,0.00,,,0.27,WeatherCatV1.12B45,2013-01-31 21:44:00,
2013-01-31 16:49:00,37.6,21.6,29.37,WSW,244,2.0,9.0,52,0.00,,,0.27,WeatherCatV1.12B45,2013-01-31 21:49:00,
2013-01-31 16:54:00,37.5,21.5,29.38,West,259,5.0,6.0,52,0.00,,,0.27,WeatherCatV1.12B45,2013-01-31 21:54:00,
2013-01-31 16:59:00,37.3,21.8,29.39,WNW,296,0.0,4.0,53,0.00,,,0.27,WeatherCatV1.12B45,2013-01-31 21:59:00,
2013-01-31 17:04:00,37.1,22.0,29.39,SW,228,4.0,11.0,54,0.00,,,0.27,WeatherCatV1.12B45,2013-01-31 22:04:00,
2013-01-31 17:09:00,36.7,22.1,29.39,SSW,198,3.0,9.0,55,0.00,,,0.27,WeatherCatV1.12B45,2013-01-31 22:09:00,
2013-01-31 17:14:00,36.6,22.0,29.39,West,268,3.0,9.0,55,0.00,,,0.27,WeatherCatV1.12B45,2013-01-31 22:14:00,
2013-01-31 17:19:00,36.3,22.1,29.40,SW,228,0.0,5.0,56,0.00,,,0.27,WeatherCatV1.12B45,2013-01-31 22:19:00,
2013-01-31 17:24:00,36.0,21.4,29.39,WNW,287,2.0,9.0,55,0.00,,,0.27,WeatherCatV1.12B45,2013-01-31 22:24:00,
2013-01-31 17:29:00,36.0,21.4,29.40,West,263,3.0,11.0,55,0.00,,,0.27,WeatherCatV1.12B45,2013-01-31 22:29:00,
2013-01-31 17:34:00,35.9,20.9,29.41,NNW,343,3.0,10.0,54,0.00,,,0.27,WeatherCatV1.12B45,2013-01-31 22:34:00,
2013-01-31 17:39:00,35.8,20.4,29.41,West,273,4.0,6.0,53,0.00,,,0.27,WeatherCatV1.12B45,2013-01-31 22:39:00,
2013-01-31 17:44:00,35.6,20.6,29.41,SW,233,3.0,6.0,54,0.00,,,0.27,WeatherCatV1.12B45,2013-01-31 22:44:00,
2013-01-31 17:49:00,35.5,20.1,29.42,WSW,258,13.0,13.0,53,0.00,,,0.27,WeatherCatV1.12B45,2013-01-31 22:49:00,
2013-01-31 17:54:00,35.5,20.1,29.42,WSW,249,9.0,9.0,53,0.00,,,0.27,WeatherCatV1.12B45,2013-01-31 22:54:00,
2013-01-31 17:59:00,35.2,20.2,29.43,WSW,249,7.0,9.0,54,0.00,,,0.27,WeatherCatV1.12B45,2013-01-31 22:59:00,
2013-01-31 18:04:00,35.2,20.2,29.43,West,263,3.0,8.0,54,0.00,,,0.27,WeatherCatV1.12B45,2013-01-31 23:04:00,
2013-01-31 18:09:00,35.2,20.7,29.44,West,267,2.0,5.0,55,0.00,,,0.27,WeatherCatV1.12B45,2013-01-31 23:09:00,
2013-01-31 18:14:00,35.2,21.1,29.43,West,271,5.0,7.0,56,0.00,,,0.27,WeatherCatV1.12B45,2013-01-31 23:14:00,
2013-01-31 18:19:00,35.2,20.7,29.44,SSW,197,3.0,7.0,55,0.00,,,0.27,WeatherCatV1.12B45,2013-01-31 23:19:00,
2013-01-31 18:24:00,35.1,21.0,29.44,WNW,288,2.0,3.0,56,0.00,,,0.27,WeatherCatV1.12B45,2013-01-31 23:24:00,
2013-01-31 18:29:00,35.1,21.0,29.45,West,275,4.0,9.0,56,0.00,,,0.27,WeatherCatV1.12B45,2013-01-31 23:29:00,
2013-01-31 18:34:00,34.8,21.1,29.45,West,269,6.0,11.0,57,0.00,,,0.27,WeatherCatV1.12B45,2013-01-31 23:34:00,
2013-01-31 18:39:00,34.6,21.0,29.46,West,277,0.0,3.0,57,0.00,,,0.27,WeatherCatV1.12B45,2013-01-31 23:39:00,
2013-01-31 18:44:00,34.3,20.7,29.45,SW,231,1.0,5.0,57,0.00,,,0.27,WeatherCatV1.12B45,2013-01-31 23:44:00,
2013-01-31 18:49:00,34.2,21.0,29.47,West,277,5.0,7.0,58,0.00,,,0.27,WeatherCatV1.12B45,2013-01-31 23:49:00,
2013-01-31 18:54:00,33.9,20.7,29.47,WNW,282,3.0,4.0,58,0.00,,,0.27,WeatherCatV1.12B45,2013-01-31 23:54:00,
2013-01-31 18:59:00,33.9,20.7,29.47,SW,215,6.0,7.0,58,0.00,,,0.27,WeatherCatV1.12B45,2013-01-31 23:59:00,
2013-01-31 19:04:00,33.8,19.8,29.47,NW,306,4.0,7.0,56,0.00,,,0.27,WeatherCatV1.12B45,2013-02-01 00:04:00,
2013-01-31 19:09:00,33.8,19.8,29.48,WNW,298,5.0,13.0,56,0.00,,,0.27,WeatherCatV1.12B45,2013-02-01 00:09:00,
2013-01-31 19:14:00,33.8,19.4,29.47,West,274,4.0,10.0,55,0.00,,,0.27,WeatherCatV1.12B45,2013-02-01 00:14:00,
2013-01-31 19:19:00,33.6,19.6,29.48,West,270,8.0,11.0,56,0.00,,,0.27,WeatherCatV1.12B45,2013-02-01 00:19:00,
2013-01-31 19:24:00,33.8,19.8,29.49,WNW,289,1.0,6.0,56,0.00,,,0.27,WeatherCatV1.12B45,2013-02-01 00:24:00,
2013-01-31 19:29:00,33.6,20.0,29.49,WSW,239,5.0,8.0,57,0.00,,,0.27,WeatherCatV1.12B45,2013-02-01 00:29:00,
2013-01-31 19:34:00,33.5,19.9,29.49,WSW,255,7.0,8.0,57,0.00,,,0.27,WeatherCatV1.12B45,2013-02-01 00:34:00,
2013-01-31 19:39:00,33.5,20.3,29.49,WSW,251,2.0,5.0,58,0.00,,,0.27,WeatherCatV1.12B45,2013-02-01 00:39:00,
2013-01-31 19:44:00,33.3,20.1,29.49,WNW,296,11.0,15.0,58,0.00,,,0.27,WeatherCatV1.12B45,2013-02-01 00:44:00,
2013-01-31 19:49:00,33.2,20.4,29.50,WNW,296,5.0,7.0,59,0.00,,,0.27,WeatherCatV1.12B45,2013-02-01 00:49:00,
2013-01-31 19:54:00,32.9,20.6,29.50,West,276,6.0,11.0,60,0.00,,,0.27,WeatherCatV1.12B45,2013-02-01 00:54:00,
2013-01-31 19:59:00,32.7,19.2,29.50,WSW,241,5.0,16.0,57,0.00,,,0.27,WeatherCatV1.12B45,2013-02-01 00:59:00,
2013-01-31 20:04:00,32.7,19.2,29.50,West,267,4.0,10.0,57,0.00,,,0.27,WeatherCatV1.12B45,2013-02-01 01:04:00,
2013-01-31 20:09:00,32.5,19.0,29.50,WSW,256,8.0,9.0,57,0.00,,,0.27,WeatherCatV1.12B45,2013-02-01 01:09:00,
2013-01-31 20:14:00,32.2,18.7,29.50,West,270,6.0,9.0,57,0.00,,,0.27,WeatherCatV1.12B45,2013-02-01 01:14:00,
2013-01-31 20:19:00,32.2,18.3,29.51,North,353,5.0,8.0,56,0.00,,,0.27,WeatherCatV1.12B45,2013-02-01 01:19:00,
2013-01-31 20:24:00,32.2,18.3,29.51,SSW,211,3.0,8.0,56,0.00,,,0.27,WeatherCatV1.12B45,2013-02-01 01:24:00,
2013-01-31 20:29:00,32.1,17.4,29.51,SW,228,1.0,14.0,54,0.00,,,0.27,WeatherCatV1.12B45,2013-02-01 01:29:00,
2013-01-31 20:34:00,32.1,17.8,29.52,SW,214,1.0,6.0,55,0.00,,,0.27,WeatherCatV1.12B45,2013-02-01 01:34:00,
2013-01-31 20:39:00,31.8,17.9,29.52,South,191,4.0,4.0,56,0.00,,,0.27,WeatherCatV1.12B45,2013-02-01 01:39:00,
2013-01-31 20:44:00,31.7,18.2,29.52,SW,219,5.0,11.0,57,0.00,,,0.27,WeatherCatV1.12B45,2013-02-01 01:44:00,
2013-01-31 20:49:00,31.7,18.2,29.52,West,278,3.0,5.0,57,0.00,,,0.27,WeatherCatV1.12B45,2013-02-01 01:49:00,
2013-01-31 20:54:00,31.5,18.0,29.52,WNW,302,13.0,13.0,57,0.00,,,0.27,WeatherCatV1.12B45,2013-02-01 01:54:00,
2013-01-31 20:59:00,31.5,18.4,29.52,West,278,5.0,10.0,58,0.00,,,0.27,WeatherCatV1.12B45,2013-02-01 01:59:00,
2013-01-31 21:04:00,31.3,18.3,29.52,WNW,283,7.0,18.0,58,0.00,,,0.27,WeatherCatV1.12B45,2013-02-01 02:04:00,
2013-01-31 21:09:00,31.2,18.6,29.54,WNW,289,6.0,7.0,59,0.00,,,0.27,WeatherCatV1.12B45,2013-02-01 02:09:00,
2013-01-31 21:14:00,30.9,18.7,29.55,WNW,285,8.0,8.0,60,0.00,,,0.27,WeatherCatV1.12B45,2013-02-01 02:14:00,
2013-01-31 21:19:00,30.8,19.0,29.55,West,279,11.0,11.0,61,0.00,,,0.27,WeatherCatV1.12B45,2013-02-01 02:19:00,
2013-01-31 21:24:00,30.6,18.4,29.55,WNW,291,4.0,12.0,60,0.00,,,0.27,WeatherCatV1.12B45,2013-02-01 02:24:00,
2013-01-31 21:29:00,30.5,18.3,29.55,WNW,285,9.0,13.0,60,0.00,,,0.27,WeatherCatV1.12B45,2013-02-01 02:29:00,
2013-01-31 21:34:00,30.5,18.3,29.55,SW,221,7.0,15.0,60,0.00,,,0.27,WeatherCatV1.12B45,2013-02-01 02:34:00,
2013-01-31 21:39:00,30.5,17.9,29.55,WSW,258,3.0,6.0,59,0.00,,,0.27,WeatherCatV1.12B45,2013-02-01 02:39:00,
2013-01-31 21:44:00,30.3,18.1,29.55,SW,218,5.0,7.0,60,0.00,,,0.27,WeatherCatV1.12B45,2013-02-01 02:44:00,
2013-01-31 21:49:00,30.2,17.6,29.56,WNW,295,4.0,13.0,59,0.00,,,0.27,WeatherCatV1.12B45,2013-02-01 02:49:00,
2013-01-31 21:54:00,30.2,17.6,29.55,WNW,291,2.0,13.0,59,0.00,,,0.27,WeatherCatV1.12B45,2013-02-01 02:54:00,
2013-01-31 21:59:00,30.1,17.5,29.57,WSW,257,3.0,6.0,59,0.00,,,0.27,WeatherCatV1.12B45,2013-02-01 02:59:00,
2013-01-31 22:04:00,29.8,17.2,29.56,West,263,1.0,10.0,59,0.00,,,0.27,WeatherCatV1.12B45,2013-02-01 03:04:00,
2013-01-31 22:09:00,29.6,17.1,29.56,West,274,1.0,5.0,59,0.00,,,0.27,WeatherCatV1.12B45,2013-02-01 03:09:00,
2013-01-31 22:14:00,29.7,16.8,29.57,WNW,283,9.0,17.0,58,0.00,,,0.27,WeatherCatV1.12B45,2013-02-01 03:14:00,
2013-01-31 22:19:00,30.1,16.3,29.56,WNW,289,3.0,14.0,56,0.00,,,0.27,WeatherCatV1.12B45,2013-02-01 03:19:00,
2013-01-31 22:24:00,29.9,16.1,29.57,WNW,291,4.0,11.0,56,0.00,,,0.27,WeatherCatV1.12B45,2013-02-01 03:24:00,
2013-01-31 22:29:00,29.9,16.1,29.57,West,271,3.0,14.0,56,0.00,,,0.27,WeatherCatV1.12B45,2013-02-01 03:29:00,
2013-01-31 22:34:00,29.8,16.0,29.57,SW,235,5.0,9.0,56,0.00,,,0.27,WeatherCatV1.12B45,2013-02-01 03:34:00,
2013-01-31 22:39:00,29.6,15.9,29.57,West,270,9.0,11.0,56,0.00,,,0.27,WeatherCatV1.12B45,2013-02-01 03:39:00,
2013-01-31 22:44:00,29.6,15.9,29.57,West,275,4.0,7.0,56,0.00,,,0.27,WeatherCatV1.12B45,2013-02-01 03:44:00,
2013-01-31 22:49:00,29.4,15.7,29.57,WSW,258,4.0,13.0,56,0.00,,,0.27,WeatherCatV1.12B45,2013-02-01 03:49:00,
2013-01-31 22:54:00,29.4,15.7,29.57,West,266,2.0,12.0,56,0.00,,,0.27,WeatherCatV1.12B45,2013-02-01 03:54:00,
2013-01-31 22:59:00,29.3,16.4,29.57,WSW,257,7.0,7.0,58,0.00,,,0.27,WeatherCatV1.12B45,2013-02-01 03:59:00,
2013-01-31 23:04:00,29.1,16.2,29.57,West,259,3.0,5.0,58,0.00,,,0.27,WeatherCatV1.12B45,2013-02-01 04:04:00,
2013-01-31 23:09:00,29.0,16.1,29.57,SW,228,3.0,9.0,58,0.00,,,0.27,WeatherCatV1.12B45,2013-02-01 04:09:00,
2013-01-31 23:14:00,29.0,16.5,29.57,SW,233,5.0,10.0,59,0.00,,,0.27,WeatherCatV1.12B45,2013-02-01 04:14:00,
2013-01-31 23:19:00,28.9,16.0,29.57,West,280,5.0,8.0,58,0.00,,,0.27,WeatherCatV1.12B45,2013-02-01 04:19:00,
2013-01-31 23:24:00,28.9,16.4,29.57,SW,235,6.0,7.0,59,0.00,,,0.27,WeatherCatV1.12B45,2013-02-01 04:24:00,
2013-01-31 23:29:00,28.8,16.3,29.57,WNW,294,5.0,14.0,59,0.00,,,0.27,WeatherCatV1.12B45,2013-02-01 04:29:00,
2013-01-31 23:34:00,28.7,17.0,29.58,SW,223,5.0,9.0,61,0.00,,,0.27,WeatherCatV1.12B45,2013-02-01 04:34:00,
2013-01-31 23:39:00,28.7,17.0,29.58,SSW,206,1.0,9.0,61,0.00,,,0.27,WeatherCatV1.12B45,2013-02-01 04:39:00,
2013-01-31 23:44:00,28.5,16.8,29.58,West,275,2.0,9.0,61,0.00,,,0.27,WeatherCatV1.12B45,2013-02-01 04:44:00,
2013-01-31 23:49:00,28.7,17.0,29.58,SW,222,7.0,14.0,61,0.00,,,0.27,WeatherCatV1.12B45,2013-02-01 04:49:00,
2013-01-31 23:54:00,28.5,17.2,29.58,WSW,256,8.0,16.0,62,0.00,,,0.27,WeatherCatV1.12B45,2013-02-01 04:54:00,
2013-01-31 23:59:00,28.5,17.2,29.58,WNW,288,3.0,8.0,62,0.00,,,0.27,WeatherCatV1.12B45,2013-02-01 04:59:00,